Hauptseite
METAR-TAF:

METAR-TAF

Flughäfen :

Heeresflugplatz Niederstetten

Niederstetten, Deutschland

Breite: 49-24N, Länge: 009-58E, Höhe: 468 m

Beobachtung

Neuester Wetterbericht von vor 15 Minuten, um 03:20 UTC
Wind 3 kt aus Nordost
Temperatur 15°C
Luftfeuchtigkeit 94%
Luftdruck 1024 hPa
Sichtweite 10 km oder mehr
Durchbrochene Bewölkung in der Höhe von 3500 ft

METAR: ETHN 200320Z 04003KT 9999 BKN035 15/14 Q1024 BLU

Zeit: 05:35 (03:35 UTC)

Prognose

Neuester Wetterbericht von vor 10 Stunden und 37 Minuten, um 16:58 UTC
Gültige Prognose vom 19 um 17 UTC bis 20 um 02 UTC
Wind 7 kt aus West
Sichtweite 10 km oder mehr
Aufgelockert bewölkt in der Höhe von 5000 ft

TAF: ETHN 191658Z 1917/2002 28007KT 9999 NSW SCT050

Wetterbeobachtungen und Prognosen von mehr als 4000 Flughäfen (METAR und TAF Bericht).

Die verfügbaren Stationen werden durch gelbe und rote Markierungen auf der Karte dargestellt.

Führen Sie die Maus auf sie, um den Namen der Station zu sehen.

Darauf klicken, um die Beobachtung von Wetterbeobachtungen und Prognosen zu sehen.

Um die Karte zu ändern : klicken Sie auf den grünen Tasten mit einem schwarzen Kreuz Zum Vergrößern, auf den grünen Button mit einem Gedankenstrich zu verkleinern, oder auf die grünen Pfeile für benachbarte Karten.


METAR-TAF: